createdAt,value
2019-01-12T00:00:43.374Z,30.93
2019-01-12T00:03:11.121Z,25.63
2019-01-12T00:08:25.661Z,22.00
2019-01-12T00:10:53.590Z,24.20
2019-01-12T00:13:21.542Z,25.80
2019-01-12T00:15:49.197Z,25.53
2019-01-12T00:18:17.228Z,23.00
2019-01-12T00:20:45.533Z,28.03
2019-01-12T00:23:13.545Z,25.60
2019-01-12T00:28:15.699Z,20.53
2019-01-12T00:30:43.690Z,20.93
2019-01-12T00:33:11.666Z,22.63
2019-01-12T00:35:39.328Z,22.80
2019-01-12T00:38:07.298Z,22.03
2019-01-12T00:40:35.334Z,19.37
2019-01-12T00:43:03.371Z,23.40
2019-01-12T00:45:31.570Z,20.70
2019-01-12T00:48:00.371Z,17.73
2019-01-12T00:50:28.334Z,19.43
2019-01-12T00:52:56.412Z,18.03
2019-01-12T00:55:24.317Z,16.00
2019-01-12T00:57:52.390Z,20.40
2019-01-12T01:03:28.592Z,14.90
2019-01-12T01:05:56.504Z,19.33
2019-01-12T01:08:24.887Z,15.90
2019-01-12T01:10:52.533Z,16.53
2019-01-12T01:13:20.177Z,11.67
2019-01-12T01:15:48.479Z,16.70
2019-01-12T01:18:17.017Z,17.50
2019-01-12T01:21:04.331Z,17.27
2019-01-12T01:23:32.653Z,15.80
2019-01-12T01:26:00.622Z,12.27
2019-01-12T01:28:29.309Z,16.23
2019-01-12T01:30:56.977Z,11.90
2019-01-12T01:33:28.058Z,18.00
2019-01-12T01:35:54.374Z,12.20
2019-01-12T01:38:22.619Z,12.20
2019-01-12T01:40:51.205Z,14.70
2019-01-12T01:43:18.869Z,13.00
2019-01-12T01:45:47.041Z,11.47
2019-01-12T01:48:15.193Z,11.53
2019-01-12T01:50:42.884Z,12.80
2019-01-12T01:53:10.925Z,11.10
2019-01-12T01:55:38.570Z,12.47
2019-01-12T02:00:42.027Z,14.90
2019-01-12T02:03:09.701Z,8.97
2019-01-12T02:05:37.371Z,10.33
2019-01-12T02:08:05.372Z,15.23
2019-01-12T02:10:33.334Z,12.03
2019-01-12T02:13:01.542Z,12.03
2019-01-12T02:15:29.737Z,12.10
2019-01-12T02:17:57.711Z,10.57
2019-01-12T02:20:26.294Z,12.60
2019-01-12T02:22:54.025Z,8.77
2019-01-12T02:25:22.316Z,11.33
2019-01-12T02:27:50.680Z,13.40
2019-01-12T02:30:20.518Z,11.80
2019-01-12T02:32:48.501Z,10.87
2019-01-12T02:35:35.880Z,16.53
2019-01-12T02:41:11.727Z,11.67
2019-01-12T02:43:40.071Z,12.23
2019-01-12T02:46:08.663Z,10.60
2019-01-12T02:48:36.725Z,12.10
2019-01-12T02:51:04.690Z,13.03
2019-01-12T02:53:32.663Z,10.13
2019-01-12T02:56:01.101Z,13.40
2019-01-12T02:58:29.064Z,15.13
2019-01-12T03:03:43.892Z,14.20
2019-01-12T03:06:11.562Z,15.10
2019-01-12T03:08:40.157Z,14.40
2019-01-12T03:13:54.974Z,15.87
2019-01-12T03:19:09.803Z,16.57
2019-01-12T03:21:37.829Z,17.20
2019-01-12T03:24:06.562Z,16.47
2019-01-12T03:26:35.058Z,20.50
2019-01-12T03:29:03.318Z,17.13
2019-01-12T03:31:31.335Z,14.70
2019-01-12T03:33:59.062Z,16.80
2019-01-12T03:36:27.327Z,16.03
2019-01-12T03:38:55.301Z,19.37
2019-01-12T03:41:22.958Z,20.37
2019-01-12T03:43:50.617Z,16.50
2019-01-12T03:48:51.642Z,22.97
2019-01-12T03:51:19.633Z,21.40
2019-01-12T03:54:07.012Z,20.17
2019-01-12T03:56:35.356Z,16.13
2019-01-12T03:59:03.013Z,19.93
2019-01-12T04:01:31.061Z,16.97
2019-01-12T04:03:58.704Z,25.00
2019-01-12T04:06:27.026Z,22.23
2019-01-12T04:08:54.685Z,19.00
2019-01-12T04:11:22.978Z,22.23
2019-01-12T04:13:51.230Z,23.40
2019-01-12T04:18:53.019Z,22.27
2019-01-12T04:21:21.047Z,21.30
2019-01-12T04:23:49.035Z,21.57
2019-01-12T04:26:17.058Z,26.37
2019-01-12T04:34:13.050Z,29.07
2019-01-12T04:36:41.068Z,30.00
2019-01-12T04:39:09.326Z,24.53
2019-01-12T04:41:37.562Z,27.53
2019-01-12T04:44:05.212Z,31.17
2019-01-12T04:46:32.885Z,26.20
2019-01-12T04:49:00.854Z,27.90
2019-01-12T04:51:29.070Z,23.77
2019-01-12T04:53:57.042Z,25.07
2019-01-12T04:56:25.314Z,23.10
2019-01-12T04:58:53.586Z,28.43
2019-01-12T05:01:21.984Z,22.70
2019-01-12T05:03:50.251Z,25.47
2019-01-12T05:06:18.283Z,23.70
2019-01-12T05:08:46.833Z,24.63
2019-01-12T05:11:14.486Z,26.13
2019-01-12T05:13:42.426Z,24.70
2019-01-12T05:16:10.401Z,20.83
2019-01-12T05:18:38.370Z,22.40
2019-01-12T05:21:06.405Z,23.83
2019-01-12T05:23:34.419Z,21.57
2019-01-12T05:26:02.379Z,23.50
2019-01-12T05:28:30.660Z,22.70
2019-01-12T05:30:58.680Z,24.33
2019-01-12T05:33:26.653Z,23.40
2019-01-12T05:35:54.311Z,23.53
2019-01-12T05:38:22.290Z,20.70
2019-01-12T05:43:23.333Z,17.33
2019-01-12T05:45:51.358Z,16.50
2019-01-12T05:48:19.634Z,20.30
2019-01-12T05:50:47.555Z,20.70
2019-01-12T05:53:16.068Z,18.00
2019-01-12T05:55:43.741Z,17.60
2019-01-12T05:58:12.046Z,19.27
2019-01-12T06:00:39.970Z,22.80
2019-01-12T06:03:08.001Z,22.50
2019-01-12T06:05:35.674Z,17.83
2019-01-12T06:08:03.589Z,19.80
2019-01-12T06:10:32.075Z,18.00
2019-01-12T06:13:00.274Z,20.63
2019-01-12T06:15:28.646Z,17.60
2019-01-12T06:17:56.570Z,20.53
2019-01-12T06:20:24.982Z,16.67
2019-01-12T06:22:52.907Z,17.17
2019-01-12T06:28:08.446Z,19.23
2019-01-12T06:30:36.469Z,18.53
2019-01-12T06:33:04.153Z,20.33
2019-01-12T06:38:38.169Z,22.30
2019-01-12T06:41:06.076Z,13.97
2019-01-12T06:43:34.034Z,17.17
2019-01-12T06:46:02.297Z,14.70
2019-01-12T06:48:30.610Z,15.53
2019-01-12T06:53:45.144Z,14.57
2019-01-12T06:56:12.804Z,13.80
2019-01-12T06:58:41.117Z,14.47
2019-01-12T07:01:09.791Z,15.77
2019-01-12T07:03:38.382Z,15.80
2019-01-12T07:06:06.355Z,14.27
2019-01-12T07:08:34.639Z,18.67
2019-01-12T07:13:49.499Z,10.60
2019-01-12T07:16:17.470Z,13.20
2019-01-12T07:18:45.406Z,12.47
2019-01-12T07:21:13.517Z,14.30
2019-01-12T07:23:42.197Z,15.63
2019-01-12T07:26:10.182Z,14.90
2019-01-12T07:28:38.427Z,11.97
2019-01-12T07:31:06.623Z,15.83
2019-01-12T07:33:34.540Z,13.30
2019-01-12T07:36:02.506Z,12.90
2019-01-12T07:38:30.394Z,14.93
2019-01-12T07:40:58.611Z,13.50
2019-01-12T07:43:26.770Z,12.17
2019-01-12T07:45:54.713Z,13.80
2019-01-12T07:48:22.769Z,14.43
2019-01-12T07:50:50.799Z,13.43
2019-01-12T07:53:18.801Z,12.30
2019-01-12T07:55:46.750Z,13.80
2019-01-12T07:58:14.700Z,13.80
2019-01-12T08:00:42.901Z,17.93
2019-01-12T08:03:10.883Z,16.33
2019-01-12T08:05:39.223Z,17.30
2019-01-12T08:08:07.173Z,19.17
2019-01-12T08:10:35.458Z,21.17
2019-01-12T08:13:03.124Z,22.90
2019-01-12T08:15:31.106Z,22.73
2019-01-12T08:17:59.474Z,21.30
2019-01-12T08:20:27.402Z,28.63
2019-01-12T08:22:55.395Z,24.57
2019-01-12T08:25:23.638Z,24.33
2019-01-12T08:27:51.625Z,24.57
2019-01-12T08:30:19.670Z,27.50
2019-01-12T08:32:48.110Z,26.63
2019-01-12T08:35:16.341Z,30.40
2019-01-12T08:37:44.305Z,30.83
2019-01-12T08:40:12.738Z,27.40
2019-01-12T08:42:41.200Z,34.73
2019-01-12T08:48:04.045Z,30.43
2019-01-12T08:50:32.249Z,32.47
2019-01-12T08:52:59.907Z,37.63
2019-01-12T08:55:28.194Z,29.07
2019-01-12T08:58:15.217Z,32.80
2019-01-12T09:00:43.183Z,25.00
2019-01-12T09:03:11.775Z,31.30
2019-01-12T09:05:39.798Z,24.50
2019-01-12T09:08:07.788Z,26.37
2019-01-12T09:10:35.745Z,21.60
2019-01-12T09:13:03.752Z,22.60
2019-01-12T09:15:31.705Z,24.30
2019-01-12T09:17:59.358Z,22.03
2019-01-12T09:20:27.031Z,22.77
2019-01-12T09:22:55.410Z,25.70
2019-01-12T09:25:23.653Z,23.20
2019-01-12T09:27:51.614Z,22.70
2019-01-12T09:30:20.649Z,22.17
2019-01-12T09:35:35.738Z,20.57
2019-01-12T09:38:03.392Z,22.20
2019-01-12T09:40:31.453Z,24.33
2019-01-12T09:42:59.381Z,21.30
2019-01-12T09:45:27.617Z,18.40
2019-01-12T09:47:55.631Z,22.47
2019-01-12T09:50:23.585Z,20.93
2019-01-12T09:52:51.901Z,19.00
2019-01-12T09:55:19.847Z,22.30
2019-01-12T09:57:47.518Z,21.10
2019-01-12T10:00:16.556Z,19.47
2019-01-12T10:02:44.617Z,18.83
2019-01-12T10:07:59.724Z,17.37
2019-01-12T10:10:28.053Z,22.07
2019-01-12T10:12:56.513Z,19.77
2019-01-12T10:15:24.499Z,19.73
2019-01-12T10:17:52.463Z,17.73
2019-01-12T10:20:20.430Z,14.70
2019-01-12T10:22:48.091Z,14.30
2019-01-12T10:25:16.490Z,16.87
2019-01-12T10:27:44.857Z,14.33
2019-01-12T10:30:14.455Z,16.60
2019-01-12T10:32:42.677Z,14.70
2019-01-12T10:35:10.452Z,15.00
2019-01-12T10:37:38.400Z,13.50
2019-01-12T10:45:15.190Z,14.80
2019-01-12T10:47:44.133Z,13.10
2019-01-12T10:50:13.748Z,16.90
2019-01-12T10:52:43.968Z,12.90
2019-01-12T10:55:13.294Z,16.30
2019-01-12T10:57:41.210Z,12.27
2019-01-12T11:03:01.092Z,14.57
2019-01-12T11:05:28.762Z,14.93
2019-01-12T11:08:15.853Z,17.37
2019-01-12T11:13:18.233Z,17.63
2019-01-12T11:15:46.310Z,16.03
2019-01-12T11:18:14.021Z,14.87
2019-01-12T11:20:42.262Z,15.50
2019-01-12T11:23:10.261Z,16.83
2019-01-12T11:25:42.796Z,20.80
2019-01-12T11:28:07.633Z,19.03
2019-01-12T11:30:35.979Z,16.40
2019-01-12T11:33:04.048Z,16.83
2019-01-12T11:35:32.363Z,21.00
2019-01-12T11:38:00.389Z,20.93
2019-01-12T11:40:28.381Z,19.43
2019-01-12T11:43:15.398Z,21.50
2019-01-12T11:45:43.331Z,20.20
2019-01-12T11:48:11.638Z,20.17
2019-01-12T11:50:39.299Z,20.20
2019-01-12T11:53:07.614Z,22.70
2019-01-12T11:55:35.281Z,21.37
2019-01-12T11:58:03.541Z,23.47
2019-01-12T12:00:31.713Z,22.20
2019-01-12T12:02:59.697Z,20.60
2019-01-12T12:05:28.162Z,23.07
2019-01-12T12:13:23.713Z,24.47
2019-01-12T12:15:52.115Z,18.40
2019-01-12T12:18:20.096Z,23.80
2019-01-12T12:20:48.094Z,22.80
2019-01-12T12:23:16.399Z,22.07
2019-01-12T12:25:44.538Z,24.60
2019-01-12T12:28:31.638Z,23.33
2019-01-12T12:30:59.329Z,26.27
2019-01-12T12:33:27.598Z,25.70
2019-01-12T12:35:55.288Z,26.27
2019-01-12T12:38:23.229Z,29.10
2019-01-12T12:40:51.248Z,23.77
2019-01-12T12:43:19.580Z,25.60
2019-01-12T12:45:48.105Z,26.50
2019-01-12T12:48:16.393Z,25.80
2019-01-12T12:50:44.425Z,26.53
2019-01-12T12:53:12.101Z,23.20
2019-01-12T12:55:40.394Z,22.07
2019-01-12T12:58:08.129Z,16.57
2019-01-12T13:00:36.249Z,16.97
2019-01-12T13:05:58.989Z,18.17
2019-01-12T13:08:26.657Z,17.73
2019-01-12T13:10:54.930Z,18.10
2019-01-12T13:13:22.597Z,19.97
2019-01-12T13:15:51.386Z,18.57
2019-01-12T13:18:19.307Z,21.30
2019-01-12T13:20:47.269Z,18.50
2019-01-12T13:23:15.238Z,19.70
2019-01-12T13:25:43.558Z,21.13
2019-01-12T13:28:11.505Z,22.90
2019-01-12T13:30:39.545Z,17.40
2019-01-12T13:35:41.782Z,19.80
2019-01-12T13:38:10.078Z,18.50
2019-01-12T13:40:37.735Z,18.20
2019-01-12T13:43:06.006Z,17.10
2019-01-12T13:45:33.914Z,16.93
2019-01-12T13:48:01.818Z,21.07
2019-01-12T13:50:30.347Z,16.27
2019-01-12T13:52:58.400Z,19.17
2019-01-12T13:58:20.749Z,17.53
2019-01-12T14:00:48.744Z,17.63
2019-01-12T14:03:16.646Z,21.40
2019-01-12T14:05:44.598Z,19.20
2019-01-12T14:08:12.541Z,18.77
2019-01-12T14:10:40.484Z,16.37
2019-01-12T14:16:15.598Z,26.80
2019-01-12T14:18:43.262Z,21.67
2019-01-12T14:21:11.273Z,24.70
2019-01-12T14:23:39.290Z,23.57
2019-01-12T14:26:07.226Z,23.80
2019-01-12T14:28:35.249Z,22.37
2019-01-12T14:31:03.883Z,26.47
2019-01-12T14:33:32.390Z,28.63
2019-01-12T14:36:00.310Z,22.30
2019-01-12T14:38:28.338Z,24.90
2019-01-12T14:40:56.357Z,23.97
2019-01-12T14:43:24.546Z,21.90
2019-01-12T14:45:52.454Z,23.00
2019-01-12T14:48:20.134Z,22.53
2019-01-12T14:50:48.350Z,16.43
2019-01-12T14:53:16.933Z,17.93
2019-01-12T14:55:44.961Z,19.90
2019-01-12T14:58:13.292Z,16.03
2019-01-12T15:00:41.351Z,17.83
2019-01-12T15:03:09.292Z,13.77
2019-01-12T15:05:36.962Z,12.80
2019-01-12T15:08:04.820Z,10.03
2019-01-12T15:10:33.012Z,10.60
2019-01-12T15:13:01.706Z,9.30
2019-01-12T15:15:29.641Z,8.80
2019-01-12T15:17:57.681Z,6.37
2019-01-12T15:20:26.618Z,7.50
2019-01-12T15:22:54.574Z,7.10
2019-01-12T15:25:23.099Z,8.97
2019-01-12T15:27:50.743Z,8.13
2019-01-12T15:30:19.753Z,5.80
2019-01-12T15:32:48.026Z,5.97
2019-01-12T15:35:16.478Z,10.77
2019-01-12T15:37:44.675Z,5.00
2019-01-12T15:40:32.212Z,5.80
2019-01-12T15:45:47.391Z,5.27
2019-01-12T15:48:15.512Z,6.57
2019-01-12T15:50:43.754Z,6.47
2019-01-12T15:53:11.773Z,5.80
2019-01-12T15:58:26.289Z,5.37
2019-01-12T16:00:54.294Z,5.77
2019-01-12T16:03:22.392Z,6.77
2019-01-12T16:05:50.300Z,7.20
2019-01-12T16:08:18.634Z,8.63
2019-01-12T16:10:46.262Z,6.83
2019-01-12T16:13:14.282Z,7.77
2019-01-12T16:15:42.558Z,6.90
2019-01-12T16:18:10.549Z,5.43
2019-01-12T16:20:39.553Z,6.53
2019-01-12T16:23:07.673Z,6.63
2019-01-12T16:25:35.586Z,7.00
2019-01-12T16:28:03.257Z,7.07
2019-01-12T16:38:25.531Z,10.67
2019-01-12T16:40:53.506Z,9.77
2019-01-12T16:43:21.512Z,9.77
2019-01-12T16:45:49.429Z,9.83
2019-01-12T16:48:17.476Z,7.83
2019-01-12T16:50:45.132Z,9.13
2019-01-12T16:53:13.070Z,8.23
2019-01-12T16:55:41.123Z,8.60
2019-01-12T16:58:08.877Z,10.30
2019-01-12T17:00:36.897Z,8.80
2019-01-12T17:03:04.930Z,10.80
2019-01-12T17:05:52.317Z,9.87
2019-01-12T17:08:19.972Z,10.83
2019-01-12T17:10:48.248Z,12.23
2019-01-12T17:13:16.470Z,32.13
2019-01-12T17:15:44.133Z,11.57
2019-01-12T17:18:12.402Z,9.40
2019-01-12T17:20:40.423Z,10.73
2019-01-12T17:25:55.255Z,16.17
2019-01-12T17:28:23.530Z,11.80
2019-01-12T17:30:51.800Z,11.33
2019-01-12T17:33:20.290Z,13.20
2019-01-12T17:35:48.865Z,13.93
2019-01-12T17:38:17.454Z,12.03
2019-01-12T17:40:45.507Z,16.53
2019-01-12T17:43:13.460Z,11.90
2019-01-12T17:45:41.112Z,14.33
2019-01-12T17:48:09.434Z,17.40
2019-01-12T17:50:37.378Z,15.10
2019-01-12T17:53:05.059Z,19.00
2019-01-12T17:55:33.557Z,15.93
2019-01-12T17:58:01.327Z,21.30
2019-01-12T18:06:03.320Z,14.00
2019-01-12T18:08:31.581Z,16.37
2019-01-12T18:10:59.240Z,16.70
2019-01-12T18:13:27.871Z,17.03
2019-01-12T18:15:56.536Z,16.60
2019-01-12T18:18:24.826Z,16.00
2019-01-12T18:20:52.816Z,14.93
2019-01-12T18:23:20.790Z,16.13
2019-01-12T18:25:48.806Z,21.70
2019-01-12T18:31:03.626Z,21.97
2019-01-12T18:33:31.530Z,16.43
2019-01-12T18:35:59.870Z,17.90
2019-01-12T18:38:28.106Z,19.00
2019-01-12T18:40:56.125Z,19.67
2019-01-12T18:43:24.463Z,23.70
2019-01-12T18:45:52.392Z,22.93
2019-01-12T18:48:20.605Z,22.03
2019-01-12T18:50:48.658Z,20.80
2019-01-12T18:53:16.950Z,28.27
2019-01-12T18:55:44.697Z,21.77
2019-01-12T18:58:12.353Z,23.37
2019-01-12T19:00:40.673Z,16.80
2019-01-12T19:03:09.259Z,14.13
2019-01-12T19:05:37.580Z,14.67
2019-01-12T19:08:05.248Z,16.07
2019-01-12T19:10:33.209Z,10.90
2019-01-12T19:13:01.220Z,16.67
2019-01-12T19:20:58.500Z,13.17
2019-01-12T19:23:26.766Z,16.40
2019-01-12T19:25:54.804Z,11.63
2019-01-12T19:28:22.774Z,15.93
2019-01-12T19:30:50.758Z,8.50
2019-01-12T19:33:18.399Z,10.47
2019-01-12T19:35:46.622Z,12.10
2019-01-12T19:38:14.542Z,7.63
2019-01-12T19:40:42.485Z,7.93
2019-01-12T19:43:10.745Z,6.73
2019-01-12T19:45:38.658Z,5.47
2019-01-12T19:48:06.646Z,5.80
2019-01-12T19:50:34.289Z,6.13
2019-01-12T19:53:02.578Z,4.97
2019-01-12T19:55:30.795Z,5.17
2019-01-12T19:57:58.797Z,4.30
2019-01-12T20:00:28.119Z,4.40
2019-01-12T20:02:56.581Z,4.80
2019-01-12T20:05:24.229Z,7.23
2019-01-12T20:07:52.474Z,5.47
2019-01-12T20:10:20.809Z,4.33
2019-01-12T20:12:48.725Z,6.00
2019-01-12T20:15:17.793Z,5.00
2019-01-12T20:17:45.739Z,5.57
2019-01-12T20:20:14.379Z,7.10
2019-01-12T20:22:42.714Z,8.00
2019-01-12T20:25:11.345Z,7.13
2019-01-12T20:27:46.469Z,7.50
2019-01-12T20:30:33.490Z,11.43
2019-01-12T20:33:20.570Z,10.30
2019-01-12T20:35:51.150Z,10.17
2019-01-12T20:38:37.909Z,11.17
2019-01-12T20:41:19.480Z,16.10
2019-01-12T20:44:06.229Z,13.80
2019-01-12T20:46:36.786Z,15.00
2019-01-12T20:49:23.867Z,15.97
2019-01-12T20:52:10.640Z,15.13
2019-01-12T20:54:43.506Z,18.80
2019-01-12T20:57:30.267Z,17.27
2019-01-12T21:00:17.555Z,16.63
2019-01-12T21:03:04.577Z,18.17
2019-01-12T21:08:45.126Z,16.70
2019-01-12T21:11:31.893Z,18.83
2019-01-12T21:14:18.922Z,14.10
2019-01-12T21:17:05.970Z,13.30
2019-01-12T21:19:34.664Z,13.47
2019-01-12T21:24:36.922Z,16.30
2019-01-12T21:27:05.142Z,10.37
2019-01-12T21:32:20.062Z,14.63
2019-01-12T21:34:48.009Z,9.17
2019-01-12T21:37:16.306Z,13.60
2019-01-12T21:39:43.956Z,13.90
2019-01-12T21:42:31.022Z,14.97
2019-01-12T21:44:58.977Z,14.27
2019-01-12T21:47:27.602Z,19.07
2019-01-12T21:49:55.839Z,9.53
2019-01-12T21:52:23.845Z,10.90
2019-01-12T21:54:51.516Z,12.20
2019-01-12T21:57:19.157Z,9.57
2019-01-12T21:59:47.713Z,9.17
2019-01-12T22:02:15.990Z,7.93
2019-01-12T22:05:03.375Z,8.67
2019-01-12T22:10:19.521Z,6.30
2019-01-12T22:12:48.784Z,9.90
2019-01-12T22:18:10.829Z,10.60
2019-01-12T22:20:57.598Z,10.00
2019-01-12T22:25:58.548Z,8.60
2019-01-12T22:28:26.203Z,11.30
2019-01-12T22:30:54.185Z,14.73
2019-01-12T22:33:22.058Z,8.47
2019-01-12T22:35:50.640Z,15.53
2019-01-12T22:38:18.633Z,16.37
2019-01-12T22:40:46.573Z,10.37
2019-01-12T22:43:14.796Z,13.27
2019-01-12T22:45:43.081Z,14.70
2019-01-12T22:48:11.066Z,18.80
2019-01-12T22:50:38.716Z,12.20
2019-01-12T22:53:07.210Z,23.20
2019-01-12T22:55:35.740Z,16.53
2019-01-12T22:58:03.690Z,16.83
2019-01-12T23:03:27.644Z,16.00
2019-01-12T23:05:56.350Z,16.57
2019-01-12T23:08:24.699Z,17.70
2019-01-12T23:10:52.984Z,22.57
2019-01-12T23:13:20.951Z,18.23
2019-01-12T23:15:48.901Z,17.90
2019-01-12T23:18:16.553Z,16.77
2019-01-12T23:20:44.881Z,16.10
2019-01-12T23:23:13.471Z,15.97
2019-01-12T23:25:42.167Z,21.40
2019-01-12T23:28:10.446Z,18.50
2019-01-12T23:30:38.481Z,20.40
2019-01-12T23:33:06.454Z,17.73
2019-01-12T23:35:34.118Z,18.93
2019-01-12T23:38:02.081Z,20.80
2019-01-12T23:40:30.041Z,20.80
2019-01-12T23:42:58.030Z,17.37
2019-01-12T23:45:25.695Z,21.57
2019-01-12T23:47:53.629Z,25.57
2019-01-12T23:50:22.371Z,25.23
2019-01-12T23:52:50.415Z,27.80
2019-01-12T23:55:18.715Z,29.10
2019-01-12T23:58:05.729Z,31.30
